Terminal Aerodrome Forecast
Issued by NWS Wilmington, NC

Home | Current Version | Previous Version | Text Only | Print | Product List | Glossary On
Versions: 1 2 3 4 5 6 7 8 9 10 11 12 13 14 15 16 17 18 19 20
000
FTUS42 KILM 292325
TAFLBT
TAF
KLBT 292325Z 3000/3024 20003KT P6SM SCT250
     FM301000 20005KT P6SM BKN050 WS007/22035KT
     FM301400 23012G21KT P6SM VCSH SCT025 OVC040
      TEMPO 3016/3019 4SM -RA SCT015 BKN025
     FM302000 28012G20KT P6SM SCT020 SCT050=

USA.gov is the U.S. government's official web portal to all federal, state and local government web resources and services.